sensor_id;sensor_type;location;lat;lon;timestamp;pressure;altitude;pressure_sealevel;temperature;humidity
62655;BME280;48717;55.556;37.816;2023-04-21T00:00:07;99543.13;;;8.12;32.00
62655;BME280;48717;55.556;37.816;2023-04-21T00:02:37;99538.72;;;8.09;32.17
62655;BME280;48717;55.556;37.816;2023-04-21T00:05:08;99569.41;;;8.21;31.97
62655;BME280;48717;55.556;37.816;2023-04-21T00:07:36;99522.91;;;7.95;32.28
62655;BME280;48717;55.556;37.816;2023-04-21T00:10:05;99561.50;;;8.13;32.17
62655;BME280;48717;55.556;37.816;2023-04-21T00:12:33;99544.81;;;8.03;32.22
62655;BME280;48717;55.556;37.816;2023-04-21T00:15:00;99553.56;;;8.02;32.50
62655;BME280;48717;55.556;37.816;2023-04-21T00:17:32;99567.59;;;8.01;32.59
62655;BME280;48717;55.556;37.816;2023-04-21T00:19:59;99553.53;;;7.93;32.79
62655;BME280;48717;55.556;37.816;2023-04-21T00:22:29;99551.75;;;7.89;33.02
62655;BME280;48717;55.556;37.816;2023-04-21T00:24:56;99557.03;;;7.95;32.72
62655;BME280;48717;55.556;37.816;2023-04-21T00:27:24;99559.66;;;7.95;32.59
62655;BME280;48717;55.556;37.816;2023-04-21T00:29:52;99558.78;;;7.93;32.91
62655;BME280;48717;55.556;37.816;2023-04-21T00:32:19;99528.94;;;7.75;32.63
62655;BME280;48717;55.556;37.816;2023-04-21T00:34:46;99545.59;;;7.87;32.52
62655;BME280;48717;55.556;37.816;2023-04-21T00:37:13;99539.44;;;7.78;32.64
62655;BME280;48717;55.556;37.816;2023-04-21T00:39:40;99542.97;;;7.80;32.80
62655;BME280;48717;55.556;37.816;2023-04-21T00:42:07;99536.81;;;7.77;32.33
62655;BME280;48717;55.556;37.816;2023-04-21T00:44:35;99506.09;;;7.58;32.62
62655;BME280;48717;55.556;37.816;2023-04-21T00:47:03;99534.13;;;7.69;32.91
62655;BME280;48717;55.556;37.816;2023-04-21T00:49:31;99495.50;;;7.46;32.80
62655;BME280;48717;55.556;37.816;2023-04-21T00:51:58;99511.31;;;7.52;32.70
62655;BME280;48717;55.556;37.816;2023-04-21T00:54:26;99530.63;;;7.65;33.03
62655;BME280;48717;55.556;37.816;2023-04-21T00:56:54;99506.00;;;7.46;32.89
62655;BME280;48717;55.556;37.816;2023-04-21T00:59:26;99520.06;;;7.57;33.20
62655;BME280;48717;55.556;37.816;2023-04-21T01:01:55;99525.31;;;7.54;33.25
62655;BME280;48717;55.556;37.816;2023-04-21T01:04:22;99500.69;;;7.37;33.53
62655;BME280;48717;55.556;37.816;2023-04-21T01:06:50;99498.88;;;7.29;33.13
62655;BME280;48717;55.556;37.816;2023-04-21T01:09:18;99477.84;;;7.20;33.02
62655;BME280;48717;55.556;37.816;2023-04-21T01:12:09;99517.38;;;7.45;33.19
62655;BME280;48717;55.556;37.816;2023-04-21T01:14:38;99504.19;;;7.36;33.29
62655;BME280;48717;55.556;37.816;2023-04-21T01:17:06;99451.44;;;6.92;33.31
62655;BME280;48717;55.556;37.816;2023-04-21T01:19:39;99520.78;;;7.31;33.38
62655;BME280;48717;55.556;37.816;2023-04-21T01:22:10;99491.72;;;7.03;33.60
62655;BME280;48717;55.556;37.816;2023-04-21T01:24:45;99483.84;;;7.05;33.19
62655;BME280;48717;55.556;37.816;2023-04-21T01:27:16;99515.44;;;7.19;33.26
62655;BME280;48717;55.556;37.816;2023-04-21T01:29:51;99508.38;;;7.09;33.66
62655;BME280;48717;55.556;37.816;2023-04-21T01:32:20;99516.25;;;7.13;33.50
62655;BME280;48717;55.556;37.816;2023-04-21T01:34:48;99463.53;;;6.77;33.25
62655;BME280;48717;55.556;37.816;2023-04-21T01:37:19;99516.25;;;7.10;33.25
62655;BME280;48717;55.556;37.816;2023-04-21T01:39:50;99505.66;;;7.02;33.65
62655;BME280;48717;55.556;37.816;2023-04-21T01:42:19;99481.06;;;6.85;33.42
62655;BME280;48717;55.556;37.816;2023-04-21T01:44:47;99505.66;;;7.02;33.62
62655;BME280;48717;55.556;37.816;2023-04-21T01:47:16;99505.66;;;6.99;33.59
62655;BME280;48717;55.556;37.816;2023-04-21T01:49:45;99505.66;;;7.02;33.33
62655;BME280;48717;55.556;37.816;2023-04-21T01:52:12;99510.06;;;7.02;33.21
62655;BME280;48717;55.556;37.816;2023-04-21T01:54:39;99503.88;;;6.95;33.63
62655;BME280;48717;55.556;37.816;2023-04-21T01:57:06;99516.16;;;6.99;33.42
62655;BME280;48717;55.556;37.816;2023-04-21T01:59:34;99480.13;;;6.78;33.16
62655;BME280;48717;55.556;37.816;2023-04-21T02:02:02;99510.91;;;6.99;33.86
62655;BME280;48717;55.556;37.816;2023-04-21T02:04:32;99507.41;;;7.00;33.25
62655;BME280;48717;55.556;37.816;2023-04-21T02:07:00;99502.13;;;6.97;33.08
62655;BME280;48717;55.556;37.816;2023-04-21T02:09:27;99510.91;;;6.99;33.16
62655;BME280;48717;55.556;37.816;2023-04-21T02:11:56;99515.28;;;7.00;33.45
62655;BME280;48717;55.556;37.816;2023-04-21T02:14:24;99473.09;;;6.74;32.95
62655;BME280;48717;55.556;37.816;2023-04-21T02:16:52;99491.63;;;6.91;33.45
62655;BME280;48717;55.556;37.816;2023-04-21T02:19:21;99516.13;;;6.96;33.44
62655;BME280;48717;55.556;37.816;2023-04-21T02:21:48;99459.91;;;6.63;33.13
62655;BME280;48717;55.556;37.816;2023-04-21T02:24:16;99506.44;;;6.90;33.85
62655;BME280;48717;55.556;37.816;2023-04-21T02:26:45;99491.53;;;6.80;33.19
62655;BME280;48717;55.556;37.816;2023-04-21T02:29:13;99509.03;;;6.86;33.67
62655;BME280;48717;55.556;37.816;2023-04-21T02:31:40;99509.91;;;6.86;33.41
62655;BME280;48717;55.556;37.816;2023-04-21T02:34:27;99509.00;;;6.83;33.63
62655;BME280;48717;55.556;37.816;2023-04-21T02:36:55;99451.00;;;6.45;33.74
62655;BME280;48717;55.556;37.816;2023-04-21T02:39:22;99476.56;;;6.66;33.98
62655;BME280;48717;55.556;37.816;2023-04-21T02:41:49;99475.69;;;6.69;33.89
62655;BME280;48717;55.556;37.816;2023-04-21T02:44:38;99510.78;;;6.87;33.65
62655;BME280;48717;55.556;37.816;2023-04-21T02:47:06;99499.34;;;6.78;33.49
62655;BME280;48717;55.556;37.816;2023-04-21T02:49:39;99486.22;;;6.72;33.41
62655;BME280;48717;55.556;37.816;2023-04-21T02:52:07;99489.69;;;6.71;33.57
62655;BME280;48717;55.556;37.816;2023-04-21T02:54:34;99496.78;;;6.82;33.56
62655;BME280;48717;55.556;37.816;2023-04-21T02:57:03;99505.56;;;6.87;33.65
62655;BME280;48717;55.556;37.816;2023-04-21T02:59:32;99497.72;;;6.91;33.33
62655;BME280;48717;55.556;37.816;2023-04-21T03:02:00;99499.41;;;6.82;33.33
62655;BME280;48717;55.556;37.816;2023-04-21T03:04:27;99507.31;;;6.88;33.06
62655;BME280;48717;55.556;37.816;2023-04-21T03:06:56;99473.91;;;6.65;33.66
62655;BME280;48717;55.556;37.816;2023-04-21T03:09:23;99513.44;;;6.90;33.72
62655;BME280;48717;55.556;37.816;2023-04-21T03:11:52;99475.69;;;6.69;33.82
62655;BME280;48717;55.556;37.816;2023-04-21T03:14:19;99494.16;;;6.83;33.52
62655;BME280;48717;55.556;37.816;2023-04-21T03:16:46;99470.47;;;6.69;33.68
62655;BME280;48717;55.556;37.816;2023-04-21T03:19:13;99523.97;;;6.96;33.54
62655;BME280;48717;55.556;37.816;2023-04-21T03:21:40;99480.09;;;6.73;32.84
62655;BME280;48717;55.556;37.816;2023-04-21T03:24:07;99512.66;;;7.00;33.04
62655;BME280;48717;55.556;37.816;2023-04-21T03:26:36;99510.06;;;7.05;33.16
62655;BME280;48717;55.556;37.816;2023-04-21T03:29:04;99516.19;;;7.05;33.37
62655;BME280;48717;55.556;37.816;2023-04-21T03:31:31;99496.94;;;7.02;32.80
62655;BME280;48717;55.556;37.816;2023-04-21T03:33:59;99485.53;;;6.95;33.21
62655;BME280;48717;55.556;37.816;2023-04-21T03:36:27;99487.31;;;7.02;33.32
62655;BME280;48717;55.556;37.816;2023-04-21T03:38:54;99508.41;;;7.15;33.48
62655;BME280;48717;55.556;37.816;2023-04-21T03:41:28;99521.59;;;7.24;32.96
62655;BME280;48717;55.556;37.816;2023-04-21T03:43:55;99484.72;;;7.05;33.17
62655;BME280;48717;55.556;37.816;2023-04-21T03:46:23;99528.63;;;7.31;33.30
62655;BME280;48717;55.556;37.816;2023-04-21T03:48:50;99417.16;;;6.67;33.10
62655;BME280;48717;55.556;37.816;2023-04-21T03:51:18;99522.56;;;7.36;33.28
62655;BME280;48717;55.556;37.816;2023-04-21T03:53:45;99520.81;;;7.39;33.23
62655;BME280;48717;55.556;37.816;2023-04-21T03:56:12;99496.25;;;7.25;33.92
62655;BME280;48717;55.556;37.816;2023-04-21T03:58:39;99489.25;;;7.27;33.66
62655;BME280;48717;55.556;37.816;2023-04-21T04:01:06;99514.00;;;7.63;33.48
62655;BME280;48717;55.556;37.816;2023-04-21T04:03:34;99486.06;;;7.78;33.68
62655;BME280;48717;55.556;37.816;2023-04-21T04:06:01;99510.78;;;8.27;32.90
62655;BME280;48717;55.556;37.816;2023-04-21T04:08:30;99504.75;;;8.57;32.46
62655;BME280;48717;55.556;37.816;2023-04-21T04:10:57;99504.81;;;8.82;31.96
62655;BME280;48717;55.556;37.816;2023-04-21T04:13:24;99495.19;;;8.98;31.87
62655;BME280;48717;55.556;37.816;2023-04-21T04:15:52;99498.66;;;9.38;31.40
62655;BME280;48717;55.556;37.816;2023-04-21T04:18:20;99517.00;;;9.77;30.71
62655;BME280;48717;55.556;37.816;2023-04-21T04:20:47;99487.13;;;9.97;30.08
62655;BME280;48717;55.556;37.816;2023-04-21T04:23:17;99502.78;;;10.28;29.56
62655;BME280;48717;55.556;37.816;2023-04-21T04:25:44;99497.41;;;10.53;29.75
62655;BME280;48717;55.556;37.816;2023-04-21T04:28:13;99492.88;;;10.74;28.58
62655;BME280;48717;55.556;37.816;2023-04-21T04:30:41;99477.00;;;10.81;28.77
62655;BME280;48717;55.556;37.816;2023-04-21T04:33:10;99500.50;;;11.11;28.00
62655;BME280;48717;55.556;37.816;2023-04-21T04:35:37;99467.06;;;11.13;28.39
62655;BME280;48717;55.556;37.816;2023-04-21T04:38:05;99487.00;;;11.44;27.56
62655;BME280;48717;55.556;37.816;2023-04-21T04:40:33;99494.78;;;11.61;27.56
62655;BME280;48717;55.556;37.816;2023-04-21T04:43:00;99490.88;;;11.93;26.40
62655;BME280;48717;55.556;37.816;2023-04-21T04:45:28;99481.84;;;12.16;26.07
62655;BME280;48717;55.556;37.816;2023-04-21T04:47:58;99488.31;;;12.58;25.94
62655;BME280;48717;55.556;37.816;2023-04-21T04:50:26;99454.81;;;12.57;25.22
62655;BME280;48717;55.556;37.816;2023-04-21T04:52:53;99487.78;;;12.92;25.34
62655;BME280;48717;55.556;37.816;2023-04-21T04:55:21;99460.59;;;12.84;25.05
62655;BME280;48717;55.556;37.816;2023-04-21T04:57:48;99467.56;;;12.88;25.26
62655;BME280;48717;55.556;37.816;2023-04-21T05:00:15;99487.72;;;12.98;25.08
62655;BME280;48717;55.556;37.816;2023-04-21T05:02:43;99448.84;;;13.00;25.35
62655;BME280;48717;55.556;37.816;2023-04-21T05:05:10;99476.53;;;13.32;24.86
62655;BME280;48717;55.556;37.816;2023-04-21T05:07:38;99469.34;;;13.39;24.54
62655;BME280;48717;55.556;37.816;2023-04-21T05:10:05;99479.94;;;13.39;24.26
62655;BME280;48717;55.556;37.816;2023-04-21T05:12:32;99448.09;;;13.44;24.53
62655;BME280;48717;55.556;37.816;2023-04-21T05:15:00;99456.75;;;13.55;24.42
62655;BME280;48717;55.556;37.816;2023-04-21T05:17:32;99476.44;;;13.88;24.42
62655;BME280;48717;55.556;37.816;2023-04-21T05:19:59;99475.22;;;14.04;23.70
62655;BME280;48717;55.556;37.816;2023-04-21T05:22:29;99439.75;;;14.08;23.44
62655;BME280;48717;55.556;37.816;2023-04-21T05:24:56;99445.72;;;14.59;23.31
62655;BME280;48717;55.556;37.816;2023-04-21T05:27:23;99429.56;;;14.69;22.76
62655;BME280;48717;55.556;37.816;2023-04-21T05:29:51;99468.72;;;15.33;22.54
62655;BME280;48717;55.556;37.816;2023-04-21T05:32:20;99464.97;;;15.40;22.24
62655;BME280;48717;55.556;37.816;2023-04-21T05:34:50;99457.91;;;15.39;21.47
62655;BME280;48717;55.556;37.816;2023-04-21T05:37:17;99456.19;;;15.38;22.10
62655;BME280;48717;55.556;37.816;2023-04-21T05:39:45;99441.88;;;15.44;21.35
62655;BME280;48717;55.556;37.816;2023-04-21T05:42:12;99423.50;;;15.35;22.29
62655;BME280;48717;55.556;37.816;2023-04-21T05:44:39;99456.78;;;15.82;21.87
62655;BME280;48717;55.556;37.816;2023-04-21T05:47:06;99464.25;;;16.00;21.42
62655;BME280;48717;55.556;37.816;2023-04-21T05:49:33;99434.75;;;16.08;21.03
62655;BME280;48717;55.556;37.816;2023-04-21T05:52:01;99413.22;;;16.17;20.50
62655;BME280;48717;55.556;37.816;2023-04-21T05:54:28;99419.69;;;16.37;20.88
62655;BME280;48717;55.556;37.816;2023-04-21T05:56:55;99423.22;;;16.66;20.39
62655;BME280;48717;55.556;37.816;2023-04-21T05:59:22;99443.38;;;17.01;20.28
62655;BME280;48717;55.556;37.816;2023-04-21T06:01:52;99454.69;;;17.09;20.06
62655;BME280;48717;55.556;37.816;2023-04-21T06:04:19;99431.94;;;17.26;19.74
62655;BME280;48717;55.556;37.816;2023-04-21T06:06:47;99413.81;;;17.10;19.64
62655;BME280;48717;55.556;37.816;2023-04-21T06:09:14;99396.09;;;16.82;19.75
62655;BME280;48717;55.556;37.816;2023-04-21T06:11:42;99451.53;;;17.25;19.74
62655;BME280;48717;55.556;37.816;2023-04-21T06:14:09;99449.84;;;17.47;19.67
62655;BME280;48717;55.556;37.816;2023-04-21T06:16:36;99445.63;;;17.66;19.50
62655;BME280;48717;55.556;37.816;2023-04-21T06:19:04;99445.56;;;17.93;19.35
62655;BME280;48717;55.556;37.816;2023-04-21T06:21:31;99438.88;;;18.05;19.24
62655;BME280;48717;55.556;37.816;2023-04-21T06:23:58;99439.44;;;18.37;19.10
62655;BME280;48717;55.556;37.816;2023-04-21T06:26:25;99436.72;;;18.61;18.93
62655;BME280;48717;55.556;37.816;2023-04-21T06:28:52;99414.63;;;18.79;18.53
62655;BME280;48717;55.556;37.816;2023-04-21T06:31:23;99428.63;;;19.07;18.06
62655;BME280;48717;55.556;37.816;2023-04-21T06:33:50;99441.53;;;19.18;17.87
62655;BME280;48717;55.556;37.816;2023-04-21T06:36:17;99436.59;;;19.29;17.91
62655;BME280;48717;55.556;37.816;2023-04-21T06:38:45;99414.28;;;19.30;17.98
62655;BME280;48717;55.556;37.816;2023-04-21T06:41:12;99425.91;;;19.29;17.88
62655;BME280;48717;55.556;37.816;2023-04-21T06:43:39;99418.34;;;19.79;17.41
62655;BME280;48717;55.556;37.816;2023-04-21T06:46:07;99405.69;;;20.23;17.19
62655;BME280;48717;55.556;37.816;2023-04-21T06:48:34;99428.16;;;20.57;16.63
62655;BME280;48717;55.556;37.816;2023-04-21T06:51:01;99408.13;;;20.65;16.55
62655;BME280;48717;55.556;37.816;2023-04-21T06:53:28;99417.47;;;20.38;16.71
62655;BME280;48717;55.556;37.816;2023-04-21T06:55:55;99421.59;;;20.45;16.59
62655;BME280;48717;55.556;37.816;2023-04-21T06:58:22;99422.66;;;20.78;16.57
62655;BME280;48717;55.556;37.816;2023-04-21T07:00:50;99411.66;;;20.84;16.06
62655;BME280;48717;55.556;37.816;2023-04-21T07:03:17;99398.47;;;20.43;16.32
62655;BME280;48717;55.556;37.816;2023-04-21T07:05:44;99407.53;;;20.77;16.07
62655;BME280;48717;55.556;37.816;2023-04-21T07:08:11;99398.59;;;21.13;15.76
62655;BME280;48717;55.556;37.816;2023-04-21T07:10:39;99370.53;;;21.21;15.54
62655;BME280;48717;55.556;37.816;2023-04-21T07:13:06;99404.44;;;21.04;15.49
62655;BME280;48717;55.556;37.816;2023-04-21T07:15:35;99396.78;;;20.96;15.59
62655;BME280;48717;55.556;37.816;2023-04-21T07:18:03;99399.22;;;21.36;15.48
62655;BME280;48717;55.556;37.816;2023-04-21T07:20:30;99389.06;;;21.77;15.27
62655;BME280;48717;55.556;37.816;2023-04-21T07:22:57;99401.03;;;22.52;14.68
62655;BME280;48717;55.556;37.816;2023-04-21T07:25:24;99391.97;;;22.85;14.20
62655;BME280;48717;55.556;37.816;2023-04-21T07:27:51;99390.03;;;22.24;14.30
62655;BME280;48717;55.556;37.816;2023-04-21T07:30:19;99376.25;;;21.82;14.66
62655;BME280;48717;55.556;37.816;2023-04-21T07:32:46;99389.88;;;22.43;14.28
62655;BME280;48717;55.556;37.816;2023-04-21T07:35:14;99379.28;;;22.40;14.18
62655;BME280;48717;55.556;37.816;2023-04-21T07:37:41;99362.91;;;22.92;13.76
62655;BME280;48717;55.556;37.816;2023-04-21T07:40:08;99379.47;;;23.60;13.15
62655;BME280;48717;55.556;37.816;2023-04-21T07:42:36;99355.84;;;23.20;13.30
62655;BME280;48717;55.556;37.816;2023-04-21T07:45:04;99377.06;;;23.10;13.23
62655;BME280;48717;55.556;37.816;2023-04-21T07:47:32;99374.72;;;22.89;13.36
62655;BME280;48717;55.556;37.816;2023-04-21T07:50:00;99357.78;;;23.18;13.30
62655;BME280;48717;55.556;37.816;2023-04-21T07:52:31;99364.66;;;23.53;13.18
62655;BME280;48717;55.556;37.816;2023-04-21T07:54:58;99346.56;;;23.98;12.96
62655;BME280;48717;55.556;37.816;2023-04-21T07:57:25;99351.22;;;24.24;12.61
62655;BME280;48717;55.556;37.816;2023-04-21T07:59:53;99361.00;;;23.39;12.92
62655;BME280;48717;55.556;37.816;2023-04-21T08:02:20;99360.25;;;23.37;13.46
62655;BME280;48717;55.556;37.816;2023-04-21T08:04:47;99350.44;;;23.36;13.40
62655;BME280;48717;55.556;37.816;2023-04-21T08:07:15;99353.47;;;23.30;13.78
62655;BME280;48717;55.556;37.816;2023-04-21T08:09:42;99349.63;;;23.92;13.10
62655;BME280;48717;55.556;37.816;2023-04-21T08:12:09;99361.97;;;23.82;12.69
62655;BME280;48717;55.556;37.816;2023-04-21T08:14:40;99335.63;;;23.58;12.71
62655;BME280;48717;55.556;37.816;2023-04-21T08:17:08;99317.63;;;23.73;12.71
62655;BME280;48717;55.556;37.816;2023-04-21T08:19:35;99343.63;;;23.74;12.71
62655;BME280;48717;55.556;37.816;2023-04-21T08:22:02;99351.41;;;24.21;12.79
62655;BME280;48717;55.556;37.816;2023-04-21T08:24:29;99337.88;;;24.08;12.89
62655;BME280;48717;55.556;37.816;2023-04-21T08:26:56;99313.13;;;23.30;13.33
62655;BME280;48717;55.556;37.816;2023-04-21T08:29:24;99329.03;;;23.04;13.48
62655;BME280;48717;55.556;37.816;2023-04-21T08:31:51;99297.16;;;23.70;13.54
62655;BME280;48717;55.556;37.816;2023-04-21T08:34:18;99326.31;;;24.06;13.28
62655;BME280;48717;55.556;37.816;2023-04-21T08:36:47;99303.66;;;24.50;12.45
62655;BME280;48717;55.556;37.816;2023-04-21T08:39:14;99332.69;;;24.60;12.62
62655;BME280;48717;55.556;37.816;2023-04-21T08:41:42;99317.41;;;24.33;12.52
62655;BME280;48717;55.556;37.816;2023-04-21T08:44:10;99305.75;;;24.60;12.48
62655;BME280;48717;55.556;37.816;2023-04-21T08:46:38;99319.44;;;24.97;12.51
62655;BME280;48717;55.556;37.816;2023-04-21T08:49:08;99309.94;;;24.92;12.64
62655;BME280;48717;55.556;37.816;2023-04-21T08:51:35;99309.13;;;24.76;12.78
62655;BME280;48717;55.556;37.816;2023-04-21T08:54:03;99293.00;;;24.89;12.57
62655;BME280;48717;55.556;37.816;2023-04-21T08:56:30;99301.84;;;24.92;12.87
62655;BME280;48717;55.556;37.816;2023-04-21T08:58:57;99301.75;;;24.93;12.76
62655;BME280;48717;55.556;37.816;2023-04-21T09:01:24;99249.63;;;24.80;12.93
62655;BME280;48717;55.556;37.816;2023-04-21T09:03:51;99262.97;;;24.68;12.82
62655;BME280;48717;55.556;37.816;2023-04-21T09:06:19;99287.00;;;24.71;13.03
62655;BME280;48717;55.556;37.816;2023-04-21T09:08:54;99267.19;;;23.77;13.07
62655;BME280;48717;55.556;37.816;2023-04-21T09:11:22;99293.66;;;23.41;13.77
62655;BME280;48717;55.556;37.816;2023-04-21T09:13:49;99283.00;;;23.96;13.74
62655;BME280;48717;55.556;37.816;2023-04-21T09:16:19;99274.38;;;24.18;13.07
62655;BME280;48717;55.556;37.816;2023-04-21T09:18:48;99258.66;;;23.97;13.11
62655;BME280;48717;55.556;37.816;2023-04-21T09:21:17;99261.81;;;23.77;13.59
62655;BME280;48717;55.556;37.816;2023-04-21T09:23:48;99263.19;;;23.55;14.22
62655;BME280;48717;55.556;37.816;2023-04-21T09:26:17;99270.75;;;24.05;13.79
62655;BME280;48717;55.556;37.816;2023-04-21T09:28:46;99259.44;;;24.27;13.43
62655;BME280;48717;55.556;37.816;2023-04-21T09:31:15;99251.59;;;24.37;13.48
62655;BME280;48717;55.556;37.816;2023-04-21T09:33:52;99253.84;;;24.03;13.61
62655;BME280;48717;55.556;37.816;2023-04-21T09:36:28;99254.09;;;24.40;13.40
62655;BME280;48717;55.556;37.816;2023-04-21T09:38:57;99248.38;;;23.62;13.71
62655;BME280;48717;55.556;37.816;2023-04-21T09:41:45;99227.34;;;23.11;14.33
62655;BME280;48717;55.556;37.816;2023-04-21T09:44:12;99234.38;;;23.42;13.97
62655;BME280;48717;55.556;37.816;2023-04-21T09:46:41;99243.88;;;23.90;14.14
62655;BME280;48717;55.556;37.816;2023-04-21T09:49:10;99231.66;;;24.27;13.75
62655;BME280;48717;55.556;37.816;2023-04-21T09:51:39;99229.97;;;24.51;13.67
62655;BME280;48717;55.556;37.816;2023-04-21T09:54:20;99219.53;;;24.19;13.70
62655;BME280;48717;55.556;37.816;2023-04-21T09:56:52;99235.19;;;23.99;13.69
62655;BME280;48717;55.556;37.816;2023-04-21T09:59:24;99233.88;;;23.92;14.01
62655;BME280;48717;55.556;37.816;2023-04-21T10:01:54;99215.75;;;23.39;14.20
62655;BME280;48717;55.556;37.816;2023-04-21T10:04:24;99230.34;;;23.77;14.34
62655;BME280;48717;55.556;37.816;2023-04-21T10:06:53;99223.91;;;23.80;14.06
62655;BME280;48717;55.556;37.816;2023-04-21T10:09:22;99221.53;;;23.75;13.97
62655;BME280;48717;55.556;37.816;2023-04-21T10:11:51;99211.31;;;24.08;13.87
62655;BME280;48717;55.556;37.816;2023-04-21T10:14:19;99177.09;;;24.10;13.59
62655;BME280;48717;55.556;37.816;2023-04-21T10:17:08;99184.91;;;24.41;13.30
62655;BME280;48717;55.556;37.816;2023-04-21T10:19:46;99212.28;;;24.47;13.29
62655;BME280;48717;55.556;37.816;2023-04-21T10:22:13;99198.47;;;24.39;13.15
62655;BME280;48717;55.556;37.816;2023-04-21T10:24:43;99191.69;;;24.72;13.49
62655;BME280;48717;55.556;37.816;2023-04-21T10:27:30;99197.53;;;24.66;13.47
62655;BME280;48717;55.556;37.816;2023-04-21T10:29:58;99169.81;;;24.64;13.32
62655;BME280;48717;55.556;37.816;2023-04-21T10:32:40;99185.41;;;24.20;13.47
62655;BME280;48717;55.556;37.816;2023-04-21T10:35:10;99161.97;;;24.61;13.51
62655;BME280;48717;55.556;37.816;2023-04-21T10:37:39;99145.47;;;24.92;12.91
62655;BME280;48717;55.556;37.816;2023-04-21T10:40:34;99190.09;;;25.84;12.75
62655;BME280;48717;55.556;37.816;2023-04-21T10:43:05;99118.25;;;26.05;12.01
62655;BME280;48717;55.556;37.816;2023-04-21T10:45:32;99162.59;;;26.62;11.83
62655;BME280;48717;55.556;37.816;2023-04-21T10:47:59;99188.41;;;26.77;11.61
62655;BME280;48717;55.556;37.816;2023-04-21T10:50:30;99172.66;;;26.48;11.72
62655;BME280;48717;55.556;37.816;2023-04-21T10:53:09;99186.91;;;26.50;11.42
62655;BME280;48717;55.556;37.816;2023-04-21T10:55:37;99171.81;;;26.23;11.50
62655;BME280;48717;55.556;37.816;2023-04-21T10:58:06;99184.00;;;26.65;11.38
62655;BME280;48717;55.556;37.816;2023-04-21T11:00:37;99156.81;;;26.55;10.88
62655;BME280;48717;55.556;37.816;2023-04-21T11:03:06;99173.94;;;27.24;10.68
62655;BME280;48717;55.556;37.816;2023-04-21T11:05:36;99171.31;;;27.45;10.50
62655;BME280;48717;55.556;37.816;2023-04-21T11:08:07;99171.91;;;27.72;10.60
62655;BME280;48717;55.556;37.816;2023-04-21T11:10:42;99168.06;;;28.07;10.13
62655;BME280;48717;55.556;37.816;2023-04-21T11:13:09;99133.97;;;28.47;10.30
62655;BME280;48717;55.556;37.816;2023-04-21T11:15:37;99153.91;;;28.67;10.38
62655;BME280;48717;55.556;37.816;2023-04-21T11:18:05;99127.72;;;28.47;10.27
62655;BME280;48717;55.556;37.816;2023-04-21T11:20:39;99158.47;;;28.36;10.03
62655;BME280;48717;55.556;37.816;2023-04-21T11:23:07;99149.22;;;28.70;9.96
62655;BME280;48717;55.556;37.816;2023-04-21T11:25:34;99124.63;;;28.19;10.17
62655;BME280;48717;55.556;37.816;2023-04-21T11:28:02;99139.06;;;28.40;9.93
62655;BME280;48717;55.556;37.816;2023-04-21T11:30:31;99142.34;;;28.65;10.25
62655;BME280;48717;55.556;37.816;2023-04-21T11:33:02;99138.66;;;28.24;9.96
62655;BME280;48717;55.556;37.816;2023-04-21T11:35:31;99115.69;;;28.39;9.90
62655;BME280;48717;55.556;37.816;2023-04-21T11:38:03;99135.03;;;28.87;9.51
62655;BME280;48717;55.556;37.816;2023-04-21T11:40:44;99089.75;;;28.78;9.54
62655;BME280;48717;55.556;37.816;2023-04-21T11:43:11;99120.00;;;29.14;9.50
62655;BME280;48717;55.556;37.816;2023-04-21T11:45:42;99122.59;;;29.16;9.30
62655;BME280;48717;55.556;37.816;2023-04-21T11:48:15;99103.72;;;29.14;9.19
62655;BME280;48717;55.556;37.816;2023-04-21T11:50:47;99106.78;;;29.51;9.39
62655;BME280;48717;55.556;37.816;2023-04-21T11:53:14;99109.75;;;29.28;9.39
62655;BME280;48717;55.556;37.816;2023-04-21T11:55:45;99084.59;;;29.26;9.42
62655;BME280;48717;55.556;37.816;2023-04-21T11:58:12;99094.38;;;29.78;9.43
62655;BME280;48717;55.556;37.816;2023-04-21T12:00:45;99088.50;;;29.92;9.39
62655;BME280;48717;55.556;37.816;2023-04-21T12:03:12;99075.44;;;30.26;9.30
62655;BME280;48717;55.556;37.816;2023-04-21T12:05:40;99092.28;;;30.87;9.12
62655;BME280;48717;55.556;37.816;2023-04-21T12:08:12;99086.03;;;30.09;8.93
62655;BME280;48717;55.556;37.816;2023-04-21T12:10:44;99088.91;;;30.17;8.92
62655;BME280;48717;55.556;37.816;2023-04-21T12:13:12;99092.78;;;30.15;9.11
62655;BME280;48717;55.556;37.816;2023-04-21T12:15:44;99087.47;;;30.33;9.11
62655;BME280;48717;55.556;37.816;2023-04-21T12:18:12;99095.31;;;30.36;9.46
62655;BME280;48717;55.556;37.816;2023-04-21T12:21:00;99094.66;;;29.94;9.38
62655;BME280;48717;55.556;37.816;2023-04-21T12:23:28;99085.22;;;29.79;9.21
62655;BME280;48717;55.556;37.816;2023-04-21T12:25:56;99079.34;;;30.61;9.06
62655;BME280;48717;55.556;37.816;2023-04-21T12:28:23;99077.84;;;30.77;9.33
62655;BME280;48717;55.556;37.816;2023-04-21T12:30:50;99077.16;;;31.03;8.70
62655;BME280;48717;55.556;37.816;2023-04-21T12:33:17;99078.31;;;31.46;8.92
62655;BME280;48717;55.556;37.816;2023-04-21T12:35:45;99075.84;;;31.35;8.95
62655;BME280;48717;55.556;37.816;2023-04-21T12:38:12;99070.47;;;30.01;9.66
62655;BME280;48717;55.556;37.816;2023-04-21T12:40:39;99044.56;;;28.26;10.60
62655;BME280;48717;55.556;37.816;2023-04-21T12:43:06;99081.28;;;27.43;10.96
62655;BME280;48717;55.556;37.816;2023-04-21T12:45:33;99075.75;;;27.45;11.44
62655;BME280;48717;55.556;37.816;2023-04-21T12:48:01;99064.09;;;27.66;11.16
62655;BME280;48717;55.556;37.816;2023-04-21T12:50:30;99056.31;;;28.36;10.40
62655;BME280;48717;55.556;37.816;2023-04-21T12:52:58;99062.59;;;28.15;10.59
62655;BME280;48717;55.556;37.816;2023-04-21T12:55:25;99049.63;;;27.44;11.02
62655;BME280;48717;55.556;37.816;2023-04-21T12:57:52;99055.94;;;27.77;11.23
62655;BME280;48717;55.556;37.816;2023-04-21T13:00:19;99034.56;;;28.05;10.88
62655;BME280;48717;55.556;37.816;2023-04-21T13:02:47;99031.88;;;29.18;10.18